sensor_id;sensor_type;location;lat;lon;timestamp;pressure;altitude;pressure_sealevel;temperature;humidity
14269;BME280;7218;51.480;7.006;2023-10-13T00:02:09;75748.59;;;-143.00;100.00
14269;BME280;7218;51.480;7.006;2023-10-13T00:04:35;75748.59;;;-143.00;100.00
14269;BME280;7218;51.480;7.006;2023-10-13T00:07:03;75776.53;;;-143.00;100.00
14269;BME280;7218;51.480;7.006;2023-10-13T00:09:34;75766.56;;;-143.00;100.00
14269;BME280;7218;51.480;7.006;2023-10-13T00:12:03;75754.59;;;-143.00;100.00
14269;BME280;7218;51.480;7.006;2023-10-13T00:14:32;75758.59;;;-143.00;100.00
14269;BME280;7218;51.480;7.006;2023-10-13T00:16:59;75748.59;;;-143.00;100.00
14269;BME280;7218;51.480;7.006;2023-10-13T00:19:30;75754.59;;;-143.00;100.00
14269;BME280;7218;51.480;7.006;2023-10-13T00:22:04;75752.59;;;-143.00;100.00
14269;BME280;7218;51.480;7.006;2023-10-13T00:24:35;75744.59;;;-143.00;100.00
14269;BME280;7218;51.480;7.006;2023-10-13T00:27:09;75740.63;;;-143.00;100.00
14269;BME280;7218;51.480;7.006;2023-10-13T00:29:51;75752.59;;;-143.00;100.00
14269;BME280;7218;51.480;7.006;2023-10-13T00:32:30;75764.56;;;-143.00;100.00
14269;BME280;7218;51.480;7.006;2023-10-13T00:34:57;75734.63;;;-143.00;100.00
14269;BME280;7218;51.480;7.006;2023-10-13T00:37:24;75732.63;;;-143.00;100.00
14269;BME280;7218;51.480;7.006;2023-10-13T00:39:54;75748.59;;;-143.00;100.00
14269;BME280;7218;51.480;7.006;2023-10-13T00:42:22;75740.63;;;-143.00;100.00
14269;BME280;7218;51.480;7.006;2023-10-13T00:45:10;75736.63;;;-143.00;100.00
14269;BME280;7218;51.480;7.006;2023-10-13T00:47:42;75728.63;;;-143.00;100.00
14269;BME280;7218;51.480;7.006;2023-10-13T00:50:15;75736.63;;;-143.00;100.00
14269;BME280;7218;51.480;7.006;2023-10-13T00:52:44;75730.63;;;-143.00;100.00
14269;BME280;7218;51.480;7.006;2023-10-13T00:55:16;75720.66;;;-143.00;100.00
14269;BME280;7218;51.480;7.006;2023-10-13T00:57:50;75702.69;;;-143.00;100.00
14269;BME280;7218;51.480;7.006;2023-10-13T01:00:20;75700.69;;;-143.00;100.00
14269;BME280;7218;51.480;7.006;2023-10-13T01:02:50;75690.72;;;-143.00;100.00
14269;BME280;7218;51.480;7.006;2023-10-13T01:05:21;75682.72;;;-143.00;100.00
14269;BME280;7218;51.480;7.006;2023-10-13T01:07:49;75670.75;;;-143.00;100.00
14269;BME280;7218;51.480;7.006;2023-10-13T01:10:18;75680.72;;;-143.00;100.00
14269;BME280;7218;51.480;7.006;2023-10-13T01:12:45;75678.72;;;-143.00;100.00
14269;BME280;7218;51.480;7.006;2023-10-13T01:15:11;75686.72;;;-143.00;100.00
14269;BME280;7218;51.480;7.006;2023-10-13T01:17:43;75678.72;;;-143.00;100.00
14269;BME280;7218;51.480;7.006;2023-10-13T01:20:11;75682.72;;;-143.00;100.00
14269;BME280;7218;51.480;7.006;2023-10-13T01:22:45;75668.75;;;-143.00;100.00
14269;BME280;7218;51.480;7.006;2023-10-13T01:25:16;75668.75;;;-143.00;100.00
14269;BME280;7218;51.480;7.006;2023-10-13T01:27:44;75674.75;;;-143.00;100.00
14269;BME280;7218;51.480;7.006;2023-10-13T01:30:14;75662.75;;;-143.00;100.00
14269;BME280;7218;51.480;7.006;2023-10-13T01:32:48;75666.75;;;-143.00;100.00
14269;BME280;7218;51.480;7.006;2023-10-13T01:35:16;75668.75;;;-143.00;100.00
14269;BME280;7218;51.480;7.006;2023-10-13T01:37:44;75668.75;;;-143.00;100.00
14269;BME280;7218;51.480;7.006;2023-10-13T01:40:10;75660.78;;;-143.00;100.00
14269;BME280;7218;51.480;7.006;2023-10-13T01:42:39;75660.78;;;-143.00;100.00
14269;BME280;7218;51.480;7.006;2023-10-13T01:45:05;75654.78;;;-143.00;100.00
14269;BME280;7218;51.480;7.006;2023-10-13T01:47:32;75656.78;;;-143.00;100.00
14269;BME280;7218;51.480;7.006;2023-10-13T01:49:58;75636.81;;;-143.00;100.00
14269;BME280;7218;51.480;7.006;2023-10-13T01:52:32;75654.78;;;-143.00;100.00
14269;BME280;7218;51.480;7.006;2023-10-13T01:54:57;75658.78;;;-143.00;100.00
14269;BME280;7218;51.480;7.006;2023-10-13T01:57:26;75662.75;;;-143.00;100.00
14269;BME280;7218;51.480;7.006;2023-10-13T01:59:54;75640.81;;;-143.00;100.00
14269;BME280;7218;51.480;7.006;2023-10-13T02:02:21;75648.78;;;-143.00;100.00
14269;BME280;7218;51.480;7.006;2023-10-13T02:04:54;75642.81;;;-143.00;100.00
14269;BME280;7218;51.480;7.006;2023-10-13T02:07:22;75654.78;;;-143.00;100.00
14269;BME280;7218;51.480;7.006;2023-10-13T02:09:52;75642.81;;;-143.00;100.00
14269;BME280;7218;51.480;7.006;2023-10-13T02:12:19;75642.81;;;-143.00;100.00
14269;BME280;7218;51.480;7.006;2023-10-13T02:14:50;75640.81;;;-143.00;100.00
14269;BME280;7218;51.480;7.006;2023-10-13T02:17:17;75618.84;;;-143.00;100.00
14269;BME280;7218;51.480;7.006;2023-10-13T02:19:46;75622.84;;;-143.00;100.00
14269;BME280;7218;51.480;7.006;2023-10-13T02:22:13;75616.84;;;-143.00;100.00
14269;BME280;7218;51.480;7.006;2023-10-13T02:24:53;75614.84;;;-143.00;100.00
14269;BME280;7218;51.480;7.006;2023-10-13T02:27:20;75624.84;;;-143.00;100.00
14269;BME280;7218;51.480;7.006;2023-10-13T02:29:49;75622.84;;;-143.00;100.00
14269;BME280;7218;51.480;7.006;2023-10-13T02:32:14;75616.84;;;-143.00;100.00
14269;BME280;7218;51.480;7.006;2023-10-13T02:34:45;75606.88;;;-143.00;100.00
14269;BME280;7218;51.480;7.006;2023-10-13T02:37:10;75612.88;;;-143.00;100.00
14269;BME280;7218;51.480;7.006;2023-10-13T02:39:38;75604.88;;;-143.00;100.00
14269;BME280;7218;51.480;7.006;2023-10-13T02:42:06;75606.88;;;-143.00;100.00
14269;BME280;7218;51.480;7.006;2023-10-13T02:44:32;75600.88;;;-143.00;100.00
14269;BME280;7218;51.480;7.006;2023-10-13T02:46:59;75600.88;;;-143.00;100.00
14269;BME280;7218;51.480;7.006;2023-10-13T02:49:26;75596.88;;;-143.00;100.00
14269;BME280;7218;51.480;7.006;2023-10-13T02:51:53;75586.91;;;-143.00;100.00
14269;BME280;7218;51.480;7.006;2023-10-13T02:54:20;75580.94;;;-143.00;100.00
14269;BME280;7218;51.480;7.006;2023-10-13T02:56:47;75590.91;;;-143.00;100.00
14269;BME280;7218;51.480;7.006;2023-10-13T02:59:15;75580.94;;;-143.00;100.00
14269;BME280;7218;51.480;7.006;2023-10-13T03:01:45;75578.94;;;-143.00;100.00
14269;BME280;7218;51.480;7.006;2023-10-13T03:04:10;75572.94;;;-143.00;100.00
14269;BME280;7218;51.480;7.006;2023-10-13T03:06:38;75554.97;;;-143.00;100.00
14269;BME280;7218;51.480;7.006;2023-10-13T03:09:08;75558.97;;;-143.00;100.00
14269;BME280;7218;51.480;7.006;2023-10-13T03:11:44;75558.97;;;-143.00;100.00
14269;BME280;7218;51.480;7.006;2023-10-13T03:14:10;75558.97;;;-143.00;100.00
14269;BME280;7218;51.480;7.006;2023-10-13T03:16:49;75564.97;;;-143.00;100.00
14269;BME280;7218;51.480;7.006;2023-10-13T03:19:15;75541.00;;;-143.00;100.00
14269;BME280;7218;51.480;7.006;2023-10-13T03:21:44;75572.94;;;-143.00;100.00
14269;BME280;7218;51.480;7.006;2023-10-13T03:24:19;75545.00;;;-143.00;100.00
14269;BME280;7218;51.480;7.006;2023-10-13T03:26:48;75552.97;;;-143.00;100.00
14269;BME280;7218;51.480;7.006;2023-10-13T03:29:17;75562.97;;;-143.00;100.00
14269;BME280;7218;51.480;7.006;2023-10-13T03:31:47;75566.94;;;-143.00;100.00
14269;BME280;7218;51.480;7.006;2023-10-13T03:34:31;75570.94;;;-143.00;100.00
14269;BME280;7218;51.480;7.006;2023-10-13T03:36:58;75566.94;;;-143.00;100.00
14269;BME280;7218;51.480;7.006;2023-10-13T03:39:26;75560.97;;;-143.00;100.00
14269;BME280;7218;51.480;7.006;2023-10-13T03:41:57;75588.91;;;-143.00;100.00
14269;BME280;7218;51.480;7.006;2023-10-13T03:44:25;75566.94;;;-143.00;100.00
14269;BME280;7218;51.480;7.006;2023-10-13T03:46:55;75558.97;;;-143.00;100.00
14269;BME280;7218;51.480;7.006;2023-10-13T03:49:22;75547.00;;;-143.00;100.00
14269;BME280;7218;51.480;7.006;2023-10-13T03:51:50;75539.00;;;-143.00;100.00
14269;BME280;7218;51.480;7.006;2023-10-13T03:54:20;75523.03;;;-143.00;100.00
14269;BME280;7218;51.480;7.006;2023-10-13T03:56:48;75517.06;;;-143.00;100.00
14269;BME280;7218;51.480;7.006;2023-10-13T03:59:17;75543.00;;;-143.00;100.00
14269;BME280;7218;51.480;7.006;2023-10-13T04:01:45;75523.03;;;-143.00;100.00
14269;BME280;7218;51.480;7.006;2023-10-13T04:04:13;75521.03;;;-143.00;100.00
14269;BME280;7218;51.480;7.006;2023-10-13T04:06:40;75525.03;;;-143.00;100.00
14269;BME280;7218;51.480;7.006;2023-10-13T04:09:17;75531.03;;;-143.00;100.00
14269;BME280;7218;51.480;7.006;2023-10-13T04:12:11;75505.06;;;-143.00;100.00
14269;BME280;7218;51.480;7.006;2023-10-13T04:15:07;75515.06;;;-143.00;100.00
14269;BME280;7218;51.480;7.006;2023-10-13T04:17:49;75507.06;;;-143.00;100.00
14269;BME280;7218;51.480;7.006;2023-10-13T04:20:16;75497.09;;;-143.00;100.00
14269;BME280;7218;51.480;7.006;2023-10-13T04:23:03;75491.09;;;-143.00;100.00
14269;BME280;7218;51.480;7.006;2023-10-13T04:25:47;75487.09;;;-143.00;100.00
14269;BME280;7218;51.480;7.006;2023-10-13T04:28:36;75479.13;;;-143.00;100.00
14269;BME280;7218;51.480;7.006;2023-10-13T04:31:16;75475.13;;;-143.00;100.00
14269;BME280;7218;51.480;7.006;2023-10-13T04:33:53;75481.13;;;-143.00;100.00
14269;BME280;7218;51.480;7.006;2023-10-13T04:36:27;75495.09;;;-143.00;100.00
14269;BME280;7218;51.480;7.006;2023-10-13T04:39:10;75469.16;;;-143.00;100.00
14269;BME280;7218;51.480;7.006;2023-10-13T04:41:42;75471.13;;;-143.00;100.00
14269;BME280;7218;51.480;7.006;2023-10-13T04:44:10;75457.16;;;-143.00;100.00
14269;BME280;7218;51.480;7.006;2023-10-13T04:46:55;75435.22;;;-143.00;100.00
14269;BME280;7218;51.480;7.006;2023-10-13T04:49:40;75451.19;;;-143.00;100.00
14269;BME280;7218;51.480;7.006;2023-10-13T04:52:18;75455.16;;;-143.00;100.00
14269;BME280;7218;51.480;7.006;2023-10-13T04:55:03;75459.16;;;-143.00;100.00
14269;BME280;7218;51.480;7.006;2023-10-13T04:57:42;75449.19;;;-143.00;100.00
14269;BME280;7218;51.480;7.006;2023-10-13T05:00:14;75451.19;;;-143.00;100.00
14269;BME280;7218;51.480;7.006;2023-10-13T05:02:58;75443.19;;;-143.00;100.00
14269;BME280;7218;51.480;7.006;2023-10-13T05:05:43;75443.19;;;-143.00;100.00
14269;BME280;7218;51.480;7.006;2023-10-13T05:08:31;75433.22;;;-143.00;100.00
14269;BME280;7218;51.480;7.006;2023-10-13T05:11:15;75423.22;;;-143.00;100.00
14269;BME280;7218;51.480;7.006;2023-10-13T05:13:59;75407.28;;;-143.00;100.00
14269;BME280;7218;51.480;7.006;2023-10-13T05:16:45;75407.28;;;-143.00;100.00
14269;BME280;7218;51.480;7.006;2023-10-13T05:19:29;75407.28;;;-143.00;100.00
14269;BME280;7218;51.480;7.006;2023-10-13T05:22:13;75415.25;;;-143.00;100.00
14269;BME280;7218;51.480;7.006;2023-10-13T05:24:58;75435.22;;;-143.00;100.00
14269;BME280;7218;51.480;7.006;2023-10-13T05:27:42;75435.22;;;-143.00;100.00
14269;BME280;7218;51.480;7.006;2023-10-13T05:30:26;75419.25;;;-143.00;100.00
14269;BME280;7218;51.480;7.006;2023-10-13T05:33:12;75431.22;;;-143.00;100.00
14269;BME280;7218;51.480;7.006;2023-10-13T05:35:52;75451.19;;;-143.00;100.00
14269;BME280;7218;51.480;7.006;2023-10-13T05:38:36;75443.19;;;-143.00;100.00
14269;BME280;7218;51.480;7.006;2023-10-13T05:41:20;75431.22;;;-143.00;100.00
14269;BME280;7218;51.480;7.006;2023-10-13T05:44:05;75409.25;;;-143.00;100.00
14269;BME280;7218;51.480;7.006;2023-10-13T05:47:01;75427.22;;;-143.00;100.00
14269;BME280;7218;51.480;7.006;2023-10-13T05:49:50;75413.25;;;-143.00;100.00
14269;BME280;7218;51.480;7.006;2023-10-13T05:52:17;75429.22;;;-143.00;100.00
14269;BME280;7218;51.480;7.006;2023-10-13T05:55:00;75431.22;;;-143.00;100.00
14269;BME280;7218;51.480;7.006;2023-10-13T05:57:45;75439.19;;;-143.00;100.00
14269;BME280;7218;51.480;7.006;2023-10-13T06:00:29;75443.19;;;-143.00;100.00
14269;BME280;7218;51.480;7.006;2023-10-13T06:03:13;75459.16;;;-143.00;100.00
14269;BME280;7218;51.480;7.006;2023-10-13T06:06:13;75447.19;;;-143.00;100.00
14269;BME280;7218;51.480;7.006;2023-10-13T06:08:57;75439.19;;;-143.00;100.00
14269;BME280;7218;51.480;7.006;2023-10-13T06:11:41;75431.22;;;-143.00;100.00
14269;BME280;7218;51.480;7.006;2023-10-13T06:14:26;75427.22;;;-143.00;100.00
14269;BME280;7218;51.480;7.006;2023-10-13T06:17:10;75415.25;;;-143.00;100.00
14269;BME280;7218;51.480;7.006;2023-10-13T06:19:50;75403.28;;;-143.00;100.00
14269;BME280;7218;51.480;7.006;2023-10-13T06:22:41;75409.25;;;-143.00;100.00
14269;BME280;7218;51.480;7.006;2023-10-13T06:25:25;75391.31;;;-143.00;100.00
14269;BME280;7218;51.480;7.006;2023-10-13T06:28:09;75387.31;;;-143.00;100.00
14269;BME280;7218;51.480;7.006;2023-10-13T06:30:54;75397.28;;;-143.00;100.00
14269;BME280;7218;51.480;7.006;2023-10-13T06:33:22;75387.31;;;-143.00;100.00
14269;BME280;7218;51.480;7.006;2023-10-13T06:35:54;75401.28;;;-143.00;100.00
14269;BME280;7218;51.480;7.006;2023-10-13T06:38:23;75381.31;;;-143.00;100.00
14269;BME280;7218;51.480;7.006;2023-10-13T06:40:49;75379.31;;;-143.00;100.00
14269;BME280;7218;51.480;7.006;2023-10-13T06:43:16;75371.34;;;-143.00;100.00
14269;BME280;7218;51.480;7.006;2023-10-13T06:45:43;75359.38;;;-143.00;100.00
14269;BME280;7218;51.480;7.006;2023-10-13T06:48:15;75343.41;;;-143.00;100.00
14269;BME280;7218;51.480;7.006;2023-10-13T06:50:47;75363.34;;;-143.00;100.00
14269;BME280;7218;51.480;7.006;2023-10-13T06:53:14;75349.38;;;-143.00;100.00
14269;BME280;7218;51.480;7.006;2023-10-13T06:55:42;75349.38;;;-143.00;100.00
14269;BME280;7218;51.480;7.006;2023-10-13T06:58:12;75333.41;;;-143.00;100.00
14269;BME280;7218;51.480;7.006;2023-10-13T07:00:38;75355.38;;;-143.00;100.00
14269;BME280;7218;51.480;7.006;2023-10-13T07:03:06;75351.38;;;-143.00;100.00
14269;BME280;7218;51.480;7.006;2023-10-13T07:05:35;75315.44;;;-143.00;100.00
14269;BME280;7218;51.480;7.006;2023-10-13T07:08:04;75347.38;;;-143.00;100.00
14269;BME280;7218;51.480;7.006;2023-10-13T07:10:30;75315.44;;;-143.00;100.00
14269;BME280;7218;51.480;7.006;2023-10-13T07:13:11;75317.44;;;-143.00;100.00
14269;BME280;7218;51.480;7.006;2023-10-13T07:15:39;75287.50;;;-143.00;100.00
14269;BME280;7218;51.480;7.006;2023-10-13T07:18:10;75265.56;;;-143.00;100.00
14269;BME280;7218;51.480;7.006;2023-10-13T07:20:39;75269.53;;;-143.00;100.00
14269;BME280;7218;51.480;7.006;2023-10-13T07:23:09;75269.53;;;-143.00;100.00
14269;BME280;7218;51.480;7.006;2023-10-13T07:25:37;75283.53;;;-143.00;100.00
14269;BME280;7218;51.480;7.006;2023-10-13T07:28:06;75267.56;;;-143.00;100.00
14269;BME280;7218;51.480;7.006;2023-10-13T07:30:35;75263.56;;;-143.00;100.00
14269;BME280;7218;51.480;7.006;2023-10-13T07:33:07;75245.59;;;-143.00;100.00
14269;BME280;7218;51.480;7.006;2023-10-13T07:35:36;75227.63;;;-143.00;100.00
14269;BME280;7218;51.480;7.006;2023-10-13T07:38:02;75223.63;;;-143.00;100.00
14269;BME280;7218;51.480;7.006;2023-10-13T07:40:33;75213.66;;;-143.00;100.00
14269;BME280;7218;51.480;7.006;2023-10-13T07:43:16;75221.66;;;-143.00;100.00
14269;BME280;7218;51.480;7.006;2023-10-13T07:45:48;75221.66;;;-143.00;100.00
14269;BME280;7218;51.480;7.006;2023-10-13T07:48:24;75195.69;;;-143.00;100.00
14269;BME280;7218;51.480;7.006;2023-10-13T07:50:58;75205.69;;;-143.00;100.00
14269;BME280;7218;51.480;7.006;2023-10-13T07:53:26;75203.69;;;-143.00;100.00
14269;BME280;7218;51.480;7.006;2023-10-13T07:55:53;75219.66;;;-143.00;100.00
14269;BME280;7218;51.480;7.006;2023-10-13T07:58:21;75203.69;;;-143.00;100.00
14269;BME280;7218;51.480;7.006;2023-10-13T08:00:51;75195.69;;;-143.00;100.00
14269;BME280;7218;51.480;7.006;2023-10-13T08:03:31;75187.72;;;-143.00;100.00
14269;BME280;7218;51.480;7.006;2023-10-13T08:06:00;75141.81;;;-143.00;98.41
14269;BME280;7218;51.480;7.006;2023-10-13T08:08:33;75125.84;;;-143.00;98.21
14269;BME280;7218;51.480;7.006;2023-10-13T08:11:04;75089.91;;;-143.00;96.43
14269;BME280;7218;51.480;7.006;2023-10-13T08:13:37;75071.94;;;-143.00;95.18
14269;BME280;7218;51.480;7.006;2023-10-13T08:16:05;75048.00;;;-143.00;94.48
14269;BME280;7218;51.480;7.006;2023-10-13T08:18:35;75056.00;;;-143.00;94.53
14269;BME280;7218;51.480;7.006;2023-10-13T08:21:02;75075.94;;;-143.00;94.65
14269;BME280;7218;51.480;7.006;2023-10-13T08:23:29;75059.97;;;-143.00;94.13
14269;BME280;7218;51.480;7.006;2023-10-13T08:26:23;75044.00;;;-143.00;92.85
14269;BME280;7218;51.480;7.006;2023-10-13T08:29:17;75030.03;;;-143.00;92.00
14269;BME280;7218;51.480;7.006;2023-10-13T08:32:03;75034.03;;;-143.00;91.28
14269;BME280;7218;51.480;7.006;2023-10-13T08:35:00;75012.09;;;-143.00;90.70
14269;BME280;7218;51.480;7.006;2023-10-13T08:37:47;74998.09;;;-143.00;89.92
14269;BME280;7218;51.480;7.006;2023-10-13T08:40:26;74976.16;;;-143.00;89.73
14269;BME280;7218;51.480;7.006;2023-10-13T08:43:11;74962.19;;;-143.00;88.81
14269;BME280;7218;51.480;7.006;2023-10-13T08:45:39;74974.16;;;-143.00;87.90
14269;BME280;7218;51.480;7.006;2023-10-13T08:48:27;74946.22;;;-143.00;87.06
14269;BME280;7218;51.480;7.006;2023-10-13T08:51:00;74932.25;;;-143.00;85.79
14269;BME280;7218;51.480;7.006;2023-10-13T08:53:34;74918.28;;;-143.00;86.11
14269;BME280;7218;51.480;7.006;2023-10-13T08:56:10;74884.34;;;-143.00;84.79
14269;BME280;7218;51.480;7.006;2023-10-13T08:58:41;74912.28;;;-143.00;83.12
14269;BME280;7218;51.480;7.006;2023-10-13T09:01:32;74904.31;;;-143.00;81.95
14269;BME280;7218;51.480;7.006;2023-10-13T09:04:05;74842.44;;;-143.00;81.57
14269;BME280;7218;51.480;7.006;2023-10-13T09:06:49;74866.38;;;-143.00;79.94
14269;BME280;7218;51.480;7.006;2023-10-13T09:09:45;74828.47;;;-143.00;78.83
14269;BME280;7218;51.480;7.006;2023-10-13T09:12:36;74796.53;;;-143.00;78.35
14269;BME280;7218;51.480;7.006;2023-10-13T09:15:03;74788.56;;;-143.00;77.52
14269;BME280;7218;51.480;7.006;2023-10-13T09:17:45;74790.56;;;-143.00;75.97
14269;BME280;7218;51.480;7.006;2023-10-13T09:20:14;74796.53;;;-143.00;76.57
14269;BME280;7218;51.480;7.006;2023-10-13T09:22:58;74772.59;;;-143.00;75.62
14269;BME280;7218;51.480;7.006;2023-10-13T09:25:34;74744.66;;;-143.00;75.53
14269;BME280;7218;51.480;7.006;2023-10-13T09:28:02;74736.66;;;-143.00;74.74
14269;BME280;7218;51.480;7.006;2023-10-13T09:30:42;74704.75;;;-143.00;72.71
14269;BME280;7218;51.480;7.006;2023-10-13T09:33:08;74750.63;;;-143.00;74.30
14269;BME280;7218;51.480;7.006;2023-10-13T09:35:37;74678.78;;;-143.00;71.42
14269;BME280;7218;51.480;7.006;2023-10-13T09:38:05;74652.84;;;-143.00;71.36
14269;BME280;7218;51.480;7.006;2023-10-13T09:40:31;74587.00;;;-143.00;69.47
14269;BME280;7218;51.480;7.006;2023-10-13T09:43:00;74589.00;;;-143.00;69.46
14269;BME280;7218;51.480;7.006;2023-10-13T09:45:34;74537.09;;;-143.00;67.24
14269;BME280;7218;51.480;7.006;2023-10-13T09:48:09;74549.09;;;-143.00;67.64
14269;BME280;7218;51.480;7.006;2023-10-13T09:50:44;74585.00;;;-143.00;67.46
14269;BME280;7218;51.480;7.006;2023-10-13T09:53:11;74533.13;;;-143.00;66.51
14269;BME280;7218;51.480;7.006;2023-10-13T09:55:42;74513.16;;;-143.00;65.94
14269;BME280;7218;51.480;7.006;2023-10-13T09:58:11;74501.19;;;-143.00;65.64
14269;BME280;7218;51.480;7.006;2023-10-13T10:00:43;74481.22;;;-143.00;64.79
14269;BME280;7218;51.480;7.006;2023-10-13T10:03:13;74467.25;;;-143.00;63.78
14269;BME280;7218;51.480;7.006;2023-10-13T10:05:59;74545.09;;;-143.00;65.11
14269;BME280;7218;51.480;7.006;2023-10-13T10:08:38;74529.13;;;-143.00;64.73
14269;BME280;7218;51.480;7.006;2023-10-13T10:11:48;74461.28;;;-143.00;62.79
14269;BME280;7218;51.480;7.006;2023-10-13T10:14:16;74473.25;;;-143.00;62.44
14269;BME280;7218;51.480;7.006;2023-10-13T10:16:56;74461.28;;;-143.00;62.57
14269;BME280;7218;51.480;7.006;2023-10-13T10:19:28;74537.09;;;-143.00;65.03
14269;BME280;7218;51.480;7.006;2023-10-13T10:22:02;74533.13;;;-143.00;64.96
14269;BME280;7218;51.480;7.006;2023-10-13T10:24:42;74596.97;;;-143.00;67.05
14269;BME280;7218;51.480;7.006;2023-10-13T10:27:08;74626.91;;;-143.00;68.22
14269;BME280;7218;51.480;7.006;2023-10-13T10:29:39;74610.94;;;-143.00;68.79
14269;BME280;7218;51.480;7.006;2023-10-13T10:32:12;74569.03;;;-143.00;67.59
14269;BME280;7218;51.480;7.006;2023-10-13T10:34:39;74543.09;;;-143.00;67.54
14269;BME280;7218;51.480;7.006;2023-10-13T10:37:08;74589.00;;;-143.00;68.52
14269;BME280;7218;51.480;7.006;2023-10-13T10:39:36;74583.00;;;-143.00;68.58
14269;BME280;7218;51.480;7.006;2023-10-13T10:42:11;74581.00;;;-143.00;68.30
14269;BME280;7218;51.480;7.006;2023-10-13T10:44:49;74628.91;;;-143.00;68.59
14269;BME280;7218;51.480;7.006;2023-10-13T10:47:20;74549.09;;;-143.00;67.69
14269;BME280;7218;51.480;7.006;2023-10-13T10:49:56;74545.09;;;-143.00;66.32
14269;BME280;7218;51.480;7.006;2023-10-13T10:52:26;74549.09;;;-143.00;67.08
14269;BME280;7218;51.480;7.006;2023-10-13T10:55:02;74541.09;;;-143.00;66.61
14269;BME280;7218;51.480;7.006;2023-10-13T10:57:32;74549.09;;;-143.00;65.75
14269;BME280;7218;51.480;7.006;2023-10-13T11:00:03;74505.19;;;-143.00;65.64
14269;BME280;7218;51.480;7.006;2023-10-13T11:02:36;74467.25;;;-143.00;63.32
14269;BME280;7218;51.480;7.006;2023-10-13T11:05:03;74471.25;;;-143.00;62.79
14269;BME280;7218;51.480;7.006;2023-10-13T11:07:32;74525.13;;;-143.00;63.91
14269;BME280;7218;51.480;7.006;2023-10-13T11:10:07;74513.16;;;-143.00;64.22
14269;BME280;7218;51.480;7.006;2023-10-13T11:12:38;74501.19;;;-143.00;64.23
14269;BME280;7218;51.480;7.006;2023-10-13T11:15:26;74489.22;;;-143.00;63.29
14269;BME280;7218;51.480;7.006;2023-10-13T11:17:59;74477.25;;;-143.00;62.44
14269;BME280;7218;51.480;7.006;2023-10-13T11:20:25;74507.16;;;-143.00;63.43
14269;BME280;7218;51.480;7.006;2023-10-13T11:22:59;74469.25;;;-143.00;62.89
14269;BME280;7218;51.480;7.006;2023-10-13T11:25:31;74479.22;;;-143.00;62.71
14269;BME280;7218;51.480;7.006;2023-10-13T11:28:09;74461.28;;;-143.00;62.16
14269;BME280;7218;51.480;7.006;2023-10-13T11:30:43;74397.41;;;-143.00;61.01
14269;BME280;7218;51.480;7.006;2023-10-13T11:33:15;74341.53;;;-143.00;59.25
14269;BME280;7218;51.480;7.006;2023-10-13T11:35:46;74207.84;;;-143.00;56.33
14269;BME280;7218;51.480;7.006;2023-10-13T11:38:23;74074.16;;;-143.00;53.49
14269;BME280;7218;51.480;7.006;2023-10-13T11:40:53;74006.31;;;-143.00;51.47
14269;BME280;7218;51.480;7.006;2023-10-13T11:43:34;73868.66;;;-143.00;48.62
14269;BME280;7218;51.480;7.006;2023-10-13T11:46:10;73832.72;;;-143.00;48.13
14269;BME280;7218;51.480;7.006;2023-10-13T11:48:39;73882.63;;;-143.00;47.56
14269;BME280;7218;51.480;7.006;2023-10-13T11:51:08;73834.72;;;-143.00;47.01
14269;BME280;7218;51.480;7.006;2023-10-13T11:53:44;73766.88;;;-143.00;45.16
14269;BME280;7218;51.480;7.006;2023-10-13T11:56:13;73868.66;;;-143.00;47.08
14269;BME280;7218;51.480;7.006;2023-10-13T11:58:42;73870.66;;;-143.00;47.29
14269;BME280;7218;51.480;7.006;2023-10-13T12:01:11;74066.19;;;-143.00;50.58
14269;BME280;7218;51.480;7.006;2023-10-13T12:03:47;74157.97;;;-143.00;51.80
14269;BME280;7218;51.480;7.006;2023-10-13T12:06:32;74171.94;;;-143.00;52.71
14269;BME280;7218;51.480;7.006;2023-10-13T12:09:13;74185.91;;;-143.00;52.86
14269;BME280;7218;51.480;7.006;2023-10-13T12:12:04;74104.09;;;-143.00;50.74
14269;BME280;7218;51.480;7.006;2023-10-13T12:14:30;74038.25;;;-143.00;49.15
14269;BME280;7218;51.480;7.006;2023-10-13T12:17:02;74100.09;;;-143.00;50.31
14269;BME280;7218;51.480;7.006;2023-10-13T12:19:30;74116.06;;;-143.00;49.92
14269;BME280;7218;51.480;7.006;2023-10-13T12:21:57;74132.03;;;-143.00;50.57
14269;BME280;7218;51.480;7.006;2023-10-13T12:24:30;74173.94;;;-143.00;50.94
14269;BME280;7218;51.480;7.006;2023-10-13T12:27:06;74235.78;;;-143.00;52.30
14269;BME280;7218;51.480;7.006;2023-10-13T12:29:44;74191.88;;;-143.00;51.13
14269;BME280;7218;51.480;7.006;2023-10-13T12:32:11;74185.91;;;-143.00;51.52
14269;BME280;7218;51.480;7.006;2023-10-13T12:34:39;74201.88;;;-143.00;51.69
14269;BME280;7218;51.480;7.006;2023-10-13T12:37:22;74169.94;;;-143.00;51.65
14269;BME280;7218;51.480;7.006;2023-10-13T12:40:06;74229.81;;;-143.00;51.90
14269;BME280;7218;51.480;7.006;2023-10-13T12:42:51;74297.66;;;-143.00;53.04
14269;BME280;7218;51.480;7.006;2023-10-13T12:45:38;74271.72;;;-143.00;52.74
14269;BME280;7218;51.480;7.006;2023-10-13T12:48:22;74305.63;;;-143.00;53.49
14269;BME280;7218;51.480;7.006;2023-10-13T12:51:06;74269.72;;;-143.00;53.11
14269;BME280;7218;51.480;7.006;2023-10-13T12:53:45;74301.63;;;-143.00;53.26
14269;BME280;7218;51.480;7.006;2023-10-13T12:56:13;74305.63;;;-143.00;53.22
14269;BME280;7218;51.480;7.006;2023-10-13T12:58:39;74289.66;;;-143.00;52.71
14269;BME280;7218;51.480;7.006;2023-10-13T13:01:06;74317.59;;;-143.00;53.54
14269;BME280;7218;51.480;7.006;2023-10-13T13:03:33;74353.53;;;-143.00;53.55
14269;BME280;7218;51.480;7.006;2023-10-13T13:06:00;74297.66;;;-143.00;52.56
14269;BME280;7218;51.480;7.006;2023-10-13T13:08:32;74295.66;;;-143.00;52.92
14269;BME280;7218;51.480;7.006;2023-10-13T13:11:01;74327.56;;;-143.00;53.04
14269;BME280;7218;51.480;7.006;2023-10-13T13:13:29;74341.53;;;-143.00;53.28
14269;BME280;7218;51.480;7.006;2023-10-13T13:15:57;74339.56;;;-143.00;52.93
14269;BME280;7218;51.480;7.006;2023-10-13T13:18:23;74345.53;;;-143.00;53.32